THY4YU KEWR-LTFM
Flight info
| Callsign | THY4YU |
|---|---|
| Flight time | N/A |
| Altitude | 37000 |
| Route | MERIT DCT HFD DCT PUT DCT BOS DCT TUSKY N265B NICSO/M084F390 NATS BEXET/N0487F410 DCT LIFFY UL975 WAL M16 DOLAS DCT NAVPI DCT EKSAK DCT SWALM DCT GASKA DCT ENITA DCT ETVIS DCT BUDEX DCT PESAT DCT DUZLA DCT MAVIR DCT TIMUR L606 GASRU T390 RILEX |
| Aircraft | A359/H-SDE2E3GHIJ3J4J5LM1ORWXY/LB1D1 |
Departure
| Time | 2026-05-05 03:05 |
|---|---|
| Airport | Newark Liberty International Airport (KEWR) |
Arrival
| Time | N/A |
|---|---|
| Airport | İstanbul Airport (LTFM) |
| Time | Latitude | Longitude | Altitude | Speed | Heading |
|---|---|---|---|---|---|
| 2026-05-05 02:24 | 40.68931 | -74.17534 | 26 ft | 0 kts | 25° |
| 2026-05-05 02:51 | 40.68928 | -74.17534 | 26 ft | 4 kts | 39° |
| 2026-05-05 02:52 | 40.68913 | -74.17552 | 24 ft | 4 kts | 43° |
| 2026-05-05 02:52 | 40.68905 | -74.17565 | 25 ft | 1 kts | 31° |
| 2026-05-05 02:52 | 40.68889 | -74.17579 | 26 ft | 4 kts | 59° |
| 2026-05-05 02:52 | 40.68884 | -74.17598 | 25 ft | 5 kts | 106° |
| 2026-05-05 02:53 | 40.68891 | -74.17622 | 25 ft | 0 kts | 115° |
| 2026-05-05 02:58 | 40.68890 | -74.17622 | 25 ft | 0 kts | 115° |
| 2026-05-05 02:58 | 40.68888 | -74.17615 | 25 ft | 2 kts | 115° |
| 2026-05-05 02:59 | 40.68867 | -74.17559 | 27 ft | 9 kts | 116° |
| 2026-05-05 02:59 | 40.68836 | -74.17473 | 26 ft | 12 kts | 116° |
| 2026-05-05 02:59 | 40.68803 | -74.17382 | 27 ft | 7 kts | 114° |
| 2026-05-05 02:59 | 40.68802 | -74.17321 | 28 ft | 7 kts | 66° |
| 2026-05-05 03:00 | 40.68841 | -74.17281 | 27 ft | 8 kts | 31° |
| 2026-05-05 03:00 | 40.68902 | -74.17240 | 27 ft | 12 kts | 25° |
| 2026-05-05 03:00 | 40.68989 | -74.17184 | 26 ft | 16 kts | 26° |
| 2026-05-05 03:00 | 40.69102 | -74.17110 | 24 ft | 19 kts | 26° |
| 2026-05-05 03:01 | 40.69220 | -74.17035 | 28 ft | 20 kts | 26° |
| 2026-05-05 03:01 | 40.69345 | -74.16955 | 26 ft | 20 kts | 26° |
| 2026-05-05 03:01 | 40.69468 | -74.16878 | 27 ft | 20 kts | 25° |
| 2026-05-05 03:01 | 40.69602 | -74.16794 | 28 ft | 22 kts | 25° |
| 2026-05-05 03:02 | 40.69746 | -74.16702 | 23 ft | 22 kts | 26° |
| 2026-05-05 03:02 | 40.69850 | -74.16634 | 21 ft | 15 kts | 26° |
| 2026-05-05 03:02 | 40.69915 | -74.16592 | 22 ft | 7 kts | 26° |
| 2026-05-05 03:02 | 40.69968 | -74.16559 | 21 ft | 10 kts | 25° |
| 2026-05-05 03:03 | 40.70032 | -74.16518 | 21 ft | 6 kts | 31° |
| 2026-05-05 03:03 | 40.70057 | -74.16470 | 21 ft | 7 kts | 76° |
| 2026-05-05 03:03 | 40.70055 | -74.16409 | 21 ft | 7 kts | 105° |
| 2026-05-05 03:03 | 40.70029 | -74.16382 | 20 ft | 4 kts | 168° |
| 2026-05-05 03:04 | 40.69986 | -74.16397 | 20 ft | 11 kts | 199° |
| 2026-05-05 03:04 | 40.69840 | -74.16486 | 22 ft | 46 kts | 205° |
| 2026-05-05 03:04 | 40.69365 | -74.16785 | 28 ft | 104 kts | 205° |
| 2026-05-05 03:04 | 40.68549 | -74.17303 | 32 ft | 154 kts | 206° |
| 2026-05-05 03:05 | 40.67596 | -74.17952 | 634 ft | 150 kts | 209° |
| 2026-05-05 03:05 | 40.66697 | -74.18691 | 1207 ft | 153 kts | 212° |
| 2026-05-05 03:05 | 40.65752 | -74.19439 | 1687 ft | 166 kts | 207° |
| 2026-05-05 03:05 | 40.64718 | -74.20272 | 2051 ft | 182 kts | 218° |
| 2026-05-05 03:06 | 40.63838 | -74.21597 | 2325 ft | 206 kts | 238° |
| 2026-05-05 03:06 | 40.63337 | -74.23496 | 2526 ft | 236 kts | 259° |
| 2026-05-05 03:06 | 40.63577 | -74.25681 | 3186 ft | 250 kts | 289° |
| 2026-05-05 03:06 | 40.64623 | -74.27524 | 4005 ft | 258 kts | 312° |
| 2026-05-05 03:07 | 40.66029 | -74.29033 | 4787 ft | 261 kts | 317° |
| 2026-05-05 03:07 | 40.67512 | -74.30439 | 5485 ft | 266 kts | 323° |
| 2026-05-05 03:07 | 40.69210 | -74.31394 | 5902 ft | 275 kts | 341° |
| 2026-05-05 03:07 | 40.71138 | -74.31410 | 6072 ft | 286 kts | 10° |
| 2026-05-05 03:08 | 40.72914 | -74.30126 | 6514 ft | 298 kts | 38° |
| 2026-05-05 03:08 | 40.74362 | -74.28154 | 7313 ft | 300 kts | 47° |
| 2026-05-05 03:08 | 40.75638 | -74.25959 | 8102 ft | 302 kts | 52° |
| 2026-05-05 03:08 | 40.76837 | -74.23680 | 8925 ft | 304 kts | 53° |
| 2026-05-05 03:09 | 40.78039 | -74.21353 | 9718 ft | 307 kts | 52° |
| 2026-05-05 03:09 | 40.79263 | -74.19031 | 10368 ft | 313 kts | 52° |
| 2026-05-05 03:09 | 40.80569 | -74.16633 | 10708 ft | 331 kts | 51° |
| 2026-05-05 03:09 | 40.81975 | -74.14120 | 11045 ft | 348 kts | 51° |
| 2026-05-05 03:10 | 40.83462 | -74.11500 | 11386 ft | 365 kts | 51° |
| 2026-05-05 03:10 | 40.85005 | -74.08797 | 11704 ft | 380 kts | 51° |
| 2026-05-05 03:10 | 40.86625 | -74.05957 | 12133 ft | 391 kts | 51° |
| 2026-05-05 03:10 | 40.88274 | -74.03060 | 12722 ft | 397 kts | 51° |
| 2026-05-05 03:11 | 40.89945 | -74.00116 | 13339 ft | 402 kts | 51° |
| 2026-05-05 03:11 | 40.91631 | -73.97138 | 13936 ft | 407 kts | 51° |
| 2026-05-05 03:11 | 40.93334 | -73.94127 | 14504 ft | 411 kts | 51° |
| 2026-05-05 03:11 | 40.95055 | -73.91080 | 15085 ft | 415 kts | 51° |
| 2026-05-05 03:12 | 40.96794 | -73.88003 | 15662 ft | 419 kts | 51° |
| 2026-05-05 03:12 | 40.98547 | -73.84895 | 16255 ft | 423 kts | 51° |
| 2026-05-05 03:12 | 41.00312 | -73.81762 | 16836 ft | 426 kts | 51° |
| 2026-05-05 03:12 | 41.02070 | -73.78639 | 17407 ft | 430 kts | 51° |
| 2026-05-05 03:13 | 41.03884 | -73.75414 | 17993 ft | 433 kts | 51° |
| 2026-05-05 03:13 | 41.05668 | -73.72239 | 18550 ft | 437 kts | 51° |
| 2026-05-05 03:13 | 41.07489 | -73.68996 | 19094 ft | 439 kts | 51° |
| 2026-05-05 03:13 | 41.09315 | -73.65738 | 19673 ft | 441 kts | 51° |
| 2026-05-05 03:14 | 41.11146 | -73.62470 | 20262 ft | 443 kts | 51° |
| 2026-05-05 03:14 | 41.12991 | -73.59171 | 20854 ft | 446 kts | 51° |
| 2026-05-05 03:14 | 41.14844 | -73.55857 | 21434 ft | 448 kts | 51° |
| 2026-05-05 03:14 | 41.16705 | -73.52523 | 22003 ft | 451 kts | 51° |
| 2026-05-05 03:15 | 41.18578 | -73.49165 | 22571 ft | 454 kts | 51° |
| 2026-05-05 03:15 | 41.20461 | -73.45785 | 23137 ft | 457 kts | 51° |
| 2026-05-05 03:15 | 41.22356 | -73.42382 | 23656 ft | 460 kts | 51° |
| 2026-05-05 03:15 | 41.24264 | -73.38948 | 24101 ft | 463 kts | 51° |
| 2026-05-05 03:16 | 41.26187 | -73.35485 | 24566 ft | 466 kts | 51° |
| 2026-05-05 03:16 | 41.28092 | -73.32052 | 25016 ft | 469 kts | 51° |
| 2026-05-05 03:16 | 41.30038 | -73.28539 | 25461 ft | 472 kts | 51° |
| 2026-05-05 03:16 | 41.31990 | -73.25012 | 25947 ft | 475 kts | 51° |
| 2026-05-05 03:17 | 41.33954 | -73.21459 | 26400 ft | 478 kts | 50° |
| 2026-05-05 03:17 | 41.35931 | -73.17878 | 26855 ft | 481 kts | 50° |
| 2026-05-05 03:17 | 41.37876 | -73.14244 | 27293 ft | 485 kts | 54° |
| 2026-05-05 03:17 | 41.39669 | -73.10418 | 27736 ft | 488 kts | 56° |
| 2026-05-05 03:18 | 41.41430 | -73.06530 | 28175 ft | 491 kts | 56° |
| 2026-05-05 03:18 | 41.43177 | -73.02600 | 28602 ft | 494 kts | 56° |
| 2026-05-05 03:18 | 41.44923 | -72.98631 | 29021 ft | 497 kts | 57° |
| 2026-05-05 03:18 | 41.46669 | -72.94650 | 29403 ft | 499 kts | 57° |
| 2026-05-05 03:19 | 41.50196 | -72.86606 | 30125 ft | 504 kts | 56° |
| 2026-05-05 03:19 | 41.51972 | -72.82557 | 30443 ft | 506 kts | 56° |
| 2026-05-05 03:19 | 41.53751 | -72.78497 | 30778 ft | 507 kts | 56° |
| 2026-05-05 03:20 | 41.55505 | -72.74490 | 31252 ft | 505 kts | 56° |
| 2026-05-05 03:20 | 41.57274 | -72.70441 | 31723 ft | 502 kts | 56° |
| 2026-05-05 03:20 | 41.59032 | -72.66415 | 32181 ft | 500 kts | 56° |